Time,TemperatureF,DewpointF,PressureIn,WindDirection,WindDirectionDegrees,WindSpeedMPH,WindSpeedGustMPH,Humidity,HourlyPrecipIn,Conditions,Clouds,dailyrainin,SolarRadiationWatts/m^2,SoftwareType,DateUTC
2013-06-13 00:02:00,88.0,37.0,30.05,SE,141,9.0,14.0,16,-99.99,,,-99.99,0.000000,,2013-06-13 06:02:00,
2013-06-13 00:11:00,87.0,40.0,30.05,SSE,154,11.0,19.0,18,-99.99,,,-99.99,0.000000,,2013-06-13 06:11:00,
2013-06-13 00:22:00,86.0,41.0,30.05,SSE,149,12.0,19.0,20,-99.99,,,-99.99,0.000000,,2013-06-13 06:22:00,
2013-06-13 00:33:00,86.0,41.0,30.05,SSE,149,12.0,19.0,20,-99.99,,,-99.99,0.000000,,2013-06-13 06:33:00,
2013-06-13 00:44:00,86.0,43.0,30.05,SSE,148,12.0,18.0,22,-99.99,,,-99.99,0.000000,,2013-06-13 06:44:00,
2013-06-13 00:52:00,85.0,44.0,30.05,SSE,147,11.0,19.0,23,-99.99,,,-99.99,0.000000,,2013-06-13 06:52:00,
2013-06-13 01:01:00,85.0,44.0,30.05,SSE,147,11.0,19.0,23,-99.99,,,-99.99,0.000000,,2013-06-13 07:01:00,
2013-06-13 01:11:00,85.0,44.0,30.05,SE,142,14.0,20.0,23,-99.99,,,-99.99,0.000000,,2013-06-13 07:11:00,
2013-06-13 01:22:00,84.0,44.0,30.05,SE,133,11.0,17.0,25,-99.99,,,-99.99,0.000000,,2013-06-13 07:22:00,
2013-06-13 01:33:00,84.0,44.0,30.05,SE,133,11.0,17.0,25,-99.99,,,-99.99,0.000000,,2013-06-13 07:33:00,
2013-06-13 01:42:00,83.0,46.0,30.05,SE,142,13.0,21.0,27,-99.99,,,-99.99,0.000000,,2013-06-13 07:42:00,
2013-06-13 01:52:00,82.0,47.0,30.06,SE,141,10.0,14.0,29,-99.99,,,-99.99,0.000000,,2013-06-13 07:52:00,
2013-06-13 02:01:00,82.0,47.0,30.06,SE,141,10.0,14.0,29,-99.99,,,-99.99,0.000000,,2013-06-13 08:01:00,
2013-06-13 02:11:00,81.0,47.0,30.06,SE,135,9.0,14.0,30,-99.99,,,-99.99,0.000000,,2013-06-13 08:11:00,
2013-06-13 02:22:00,81.0,49.0,30.06,SE,130,9.0,14.0,32,-99.99,,,-99.99,0.000000,,2013-06-13 08:22:00,
2013-06-13 02:32:00,81.0,49.0,30.06,SE,130,9.0,14.0,32,-99.99,,,-99.99,0.000000,,2013-06-13 08:32:00,
2013-06-13 02:43:00,80.0,50.0,30.06,SE,130,8.0,13.0,35,-99.99,,,-99.99,0.000000,,2013-06-13 08:43:00,
2013-06-13 02:52:00,80.0,52.0,30.06,SE,126,7.0,14.0,38,-99.99,,,-99.99,0.000000,,2013-06-13 08:52:00,
2013-06-13 03:02:00,80.0,52.0,30.06,SE,126,7.0,14.0,38,-99.99,,,-99.99,0.000000,,2013-06-13 09:02:00,
2013-06-13 03:11:00,79.0,52.0,30.06,East,95,5.0,10.0,38,-99.99,,,-99.99,0.000000,,2013-06-13 09:11:00,
2013-06-13 03:22:00,78.0,50.0,30.06,ENE,64,4.0,7.0,36,-99.99,,,-99.99,0.000000,,2013-06-13 09:22:00,
2013-06-13 03:32:00,78.0,50.0,30.06,ENE,64,4.0,7.0,36,-99.99,,,-99.99,0.000000,,2013-06-13 09:32:00,
2013-06-13 03:42:00,76.0,48.0,30.05,North,354,3.0,6.0,37,-99.99,,,-99.99,0.000000,,2013-06-13 09:42:00,
2013-06-13 03:52:00,74.0,51.0,30.05,NNE,18,2.0,4.0,43,-99.99,,,-99.99,0.000000,,2013-06-13 09:52:00,
2013-06-13 04:01:00,74.0,51.0,30.05,NNE,18,2.0,4.0,43,-99.99,,,-99.99,0.000000,,2013-06-13 10:01:00,
2013-06-13 04:11:00,72.0,52.0,30.05,NW,317,3.0,6.0,48,-99.99,,,-99.99,0.000000,,2013-06-13 10:11:00,
2013-06-13 04:22:00,73.0,52.0,30.05,NNW,347,2.0,5.0,46,-99.99,,,-99.99,0.000000,,2013-06-13 10:22:00,
2013-06-13 04:33:00,73.0,52.0,30.05,NNW,347,2.0,5.0,46,-99.99,,,-99.99,0.000000,,2013-06-13 10:33:00,
2013-06-13 04:42:00,72.0,52.0,30.05,NW,304,4.0,6.0,50,-99.99,,,-99.99,0.000000,,2013-06-13 10:42:00,
2013-06-13 04:53:00,71.0,53.0,30.05,West,281,3.0,6.0,53,-99.99,,,-99.99,0.000000,,2013-06-13 10:53:00,
2013-06-13 05:02:00,71.0,53.0,30.05,West,281,3.0,6.0,53,-99.99,,,-99.99,0.000000,,2013-06-13 11:02:00,
2013-06-13 05:11:00,71.0,52.0,30.05,WNW,295,4.0,6.0,52,-99.99,,,-99.99,0.000000,,2013-06-13 11:11:00,
2013-06-13 05:23:00,70.0,52.0,30.05,WNW,297,5.0,7.0,53,-99.99,,,-99.99,0.000000,,2013-06-13 11:23:00,
2013-06-13 05:32:00,70.0,52.0,30.05,WNW,297,5.0,7.0,53,-99.99,,,-99.99,0.000000,,2013-06-13 11:32:00,
2013-06-13 05:42:00,71.0,53.0,30.05,WNW,300,7.0,11.0,52,-99.99,,,-99.99,0.000000,,2013-06-13 11:42:00,
2013-06-13 05:52:00,72.0,53.0,30.06,WNW,289,5.0,8.0,52,-99.99,,,-99.99,0.000000,,2013-06-13 11:52:00,
2013-06-13 06:01:00,72.0,53.0,30.06,WNW,289,5.0,8.0,52,-99.99,,,-99.99,0.000000,,2013-06-13 12:01:00,
2013-06-13 06:11:00,70.0,53.0,30.06,NW,308,5.0,6.0,54,-99.99,,,-99.99,0.000000,,2013-06-13 12:11:00,
2013-06-13 06:22:00,69.0,54.0,30.07,WNW,292,6.0,8.0,59,-99.99,,,-99.99,2.090000,,2013-06-13 12:22:00,
2013-06-13 06:34:00,69.0,54.0,30.07,WNW,292,6.0,8.0,59,-99.99,,,-99.99,2.090000,,2013-06-13 12:34:00,
2013-06-13 06:42:00,70.0,54.0,30.07,WNW,288,8.0,10.0,58,-99.99,,,-99.99,11.850000,,2013-06-13 12:42:00,
2013-06-13 06:52:00,70.0,55.0,30.07,WNW,291,8.0,11.0,57,-99.99,,,-99.99,37.660000,,2013-06-13 12:52:00,
2013-06-13 07:01:00,70.0,55.0,30.07,WNW,291,8.0,11.0,57,-99.99,,,-99.99,37.660000,,2013-06-13 13:01:00,
2013-06-13 07:11:00,71.0,54.0,30.07,WNW,287,7.0,8.0,55,-99.99,,,-99.99,80.190002,,2013-06-13 13:11:00,
2013-06-13 07:21:00,74.0,55.0,30.07,WNW,288,5.0,7.0,51,-99.99,,,-99.99,123.430000,,2013-06-13 13:21:00,
2013-06-13 07:32:00,74.0,55.0,30.07,WNW,288,5.0,7.0,51,-99.99,,,-99.99,123.430000,,2013-06-13 13:32:00,
2013-06-13 07:43:00,77.0,55.0,30.08,WSW,253,1.0,4.0,46,-99.99,,,-99.99,170.850006,,2013-06-13 13:43:00,
2013-06-13 07:53:00,78.0,55.0,30.08,SE,143,2.0,6.0,45,-99.99,,,-99.99,218.270004,,2013-06-13 13:53:00,
2013-06-13 08:02:00,78.0,55.0,30.08,SE,143,2.0,6.0,45,-99.99,,,-99.99,218.270004,,2013-06-13 14:02:00,
2013-06-13 08:11:00,78.0,55.0,30.08,ESE,110,4.0,6.0,45,-99.99,,,-99.99,269.869995,,2013-06-13 14:11:00,
2013-06-13 08:22:00,78.0,56.0,30.09,ESE,109,3.0,6.0,45,-99.99,,,-99.99,319.380005,,2013-06-13 14:22:00,
2013-06-13 08:33:00,78.0,56.0,30.09,ESE,109,3.0,6.0,45,-99.99,,,-99.99,319.380005,,2013-06-13 14:33:00,
2013-06-13 08:43:00,79.0,56.0,30.09,East,86,3.0,8.0,44,-99.99,,,-99.99,369.589996,,2013-06-13 14:43:00,
2013-06-13 08:53:00,80.0,54.0,30.10,ESE,109,7.0,12.0,40,-99.99,,,-99.99,417.700012,,2013-06-13 14:53:00,
2013-06-13 09:01:00,80.0,54.0,30.10,ESE,109,7.0,12.0,40,-99.99,,,-99.99,417.700012,,2013-06-13 15:01:00,
2013-06-13 09:12:00,81.0,53.0,30.10,SE,131,7.0,13.0,37,-99.99,,,-99.99,467.910004,,2013-06-13 15:12:00,
2013-06-13 09:22:00,82.0,52.0,30.10,ESE,122,7.0,12.0,36,-99.99,,,-99.99,484.649994,,2013-06-13 15:22:00,
2013-06-13 09:33:00,82.0,52.0,30.10,ESE,122,7.0,12.0,36,-99.99,,,-99.99,484.649994,,2013-06-13 15:33:00,
2013-06-13 09:43:00,82.0,52.0,30.10,East,98,10.0,16.0,35,-99.99,,,-99.99,560.659973,,2013-06-13 15:43:00,
2013-06-13 09:53:00,82.0,52.0,30.10,SE,125,8.0,12.0,35,-99.99,,,-99.99,605.979980,,2013-06-13 15:53:00,
2013-06-13 10:01:00,82.0,52.0,30.10,SE,125,8.0,12.0,35,-99.99,,,-99.99,605.979980,,2013-06-13 16:01:00,
2013-06-13 10:12:00,83.0,52.0,30.09,ESE,119,6.0,12.0,34,-99.99,,,-99.99,652.010010,,2013-06-13 16:12:00,
2013-06-13 10:22:00,84.0,51.0,30.09,ESE,119,5.0,11.0,32,-99.99,,,-99.99,691.750000,,2013-06-13 16:22:00,
2013-06-13 10:33:00,84.0,51.0,30.09,ESE,119,5.0,11.0,32,-99.99,,,-99.99,691.750000,,2013-06-13 16:33:00,
2013-06-13 10:43:00,85.0,51.0,30.08,SE,140,5.0,12.0,30,-99.99,,,-99.99,730.109985,,2013-06-13 16:43:00,
2013-06-13 10:53:00,86.0,49.0,30.09,East,83,6.0,12.0,28,-99.99,,,-99.99,764.969971,,2013-06-13 16:53:00,
2013-06-13 11:02:00,86.0,49.0,30.09,East,83,6.0,12.0,28,-99.99,,,-99.99,764.969971,,2013-06-13 17:02:00,
2013-06-13 11:11:00,86.0,48.0,30.08,ENE,71,3.0,11.0,26,-99.99,,,-99.99,759.400024,,2013-06-13 17:11:00,
2013-06-13 11:24:00,88.0,43.0,30.08,East,91,8.0,17.0,21,-99.99,,,-99.99,827.729980,,2013-06-13 17:24:00,
2013-06-13 11:33:00,88.0,43.0,30.08,East,91,8.0,17.0,21,-99.99,,,-99.99,827.729980,,2013-06-13 17:33:00,
2013-06-13 11:43:00,89.0,41.0,30.08,East,101,8.0,20.0,18,-99.99,,,-99.99,849.349976,,2013-06-13 17:43:00,
2013-06-13 11:53:00,90.0,41.0,30.07,ESE,110,6.0,17.0,18,-99.99,,,-99.99,876.549988,,2013-06-13 17:53:00,
2013-06-13 12:02:00,90.0,41.0,30.07,ESE,110,6.0,17.0,18,-99.99,,,-99.99,876.549988,,2013-06-13 18:02:00,
2013-06-13 12:11:00,90.0,41.0,30.07,ESE,117,7.0,19.0,17,-99.99,,,-99.99,892.590027,,2013-06-13 18:11:00,
2013-06-13 12:22:00,91.0,41.0,30.07,ESE,113,9.0,17.0,17,-99.99,,,-99.99,911.409973,,2013-06-13 18:22:00,
2013-06-13 12:33:00,91.0,41.0,30.07,ESE,113,9.0,17.0,17,-99.99,,,-99.99,911.409973,,2013-06-13 18:33:00,
2013-06-13 12:43:00,91.0,39.0,30.06,SE,137,12.0,23.0,16,-99.99,,,-99.99,923.270020,,2013-06-13 18:43:00,
2013-06-13 12:52:00,91.0,39.0,30.06,ESE,109,11.0,21.0,16,-99.99,,,-99.99,933.030029,,2013-06-13 18:52:00,
2013-06-13 13:01:00,91.0,39.0,30.06,ESE,109,11.0,21.0,16,-99.99,,,-99.99,933.030029,,2013-06-13 19:01:00,
2013-06-13 13:11:00,91.0,40.0,30.05,East,98,9.0,19.0,16,-99.99,,,-99.99,934.429993,,2013-06-13 19:11:00,
2013-06-13 13:22:00,92.0,39.0,30.05,ESE,111,8.0,16.0,15,-99.99,,,-99.99,930.940002,,2013-06-13 19:22:00,
2013-06-13 13:33:00,92.0,39.0,30.05,ESE,111,8.0,16.0,15,-99.99,,,-99.99,930.940002,,2013-06-13 19:33:00,
2013-06-13 13:43:00,93.0,39.0,30.04,SE,134,12.0,19.0,15,-99.99,,,-99.99,929.549988,,2013-06-13 19:43:00,
2013-06-13 13:53:00,93.0,39.0,30.03,ESE,116,8.0,17.0,15,-99.99,,,-99.99,929.549988,,2013-06-13 19:53:00,
2013-06-13 14:01:00,93.0,39.0,30.03,ESE,116,8.0,17.0,15,-99.99,,,-99.99,929.549988,,2013-06-13 20:01:00,
2013-06-13 14:11:00,95.0,39.0,30.02,East,96,5.0,19.0,14,-99.99,,,-99.99,921.179993,,2013-06-13 20:11:00,
2013-06-13 14:22:00,94.0,38.0,30.01,East,89,8.0,18.0,14,-99.99,,,-99.99,910.020020,,2013-06-13 20:22:00,
2013-06-13 14:32:00,94.0,38.0,30.01,East,89,8.0,18.0,14,-99.99,,,-99.99,910.020020,,2013-06-13 20:32:00,
2013-06-13 14:44:00,95.0,38.0,30.00,ESE,102,10.0,21.0,13,-99.99,,,-99.99,900.260010,,2013-06-13 20:44:00,
2013-06-13 14:53:00,95.0,37.0,29.99,East,90,8.0,21.0,13,-99.99,,,-99.99,885.609985,,2013-06-13 20:53:00,
2013-06-13 15:02:00,95.0,37.0,29.99,East,90,8.0,21.0,13,-99.99,,,-99.99,885.609985,,2013-06-13 21:02:00,
2013-06-13 15:11:00,96.0,37.0,29.98,East,94,9.0,20.0,13,-99.99,,,-99.99,862.599976,,2013-06-13 21:11:00,
2013-06-13 15:22:00,95.0,37.0,29.97,ENE,64,9.0,19.0,13,-99.99,,,-99.99,839.590027,,2013-06-13 21:22:00,
2013-06-13 15:34:00,95.0,37.0,29.97,ENE,64,9.0,19.0,13,-99.99,,,-99.99,839.590027,,2013-06-13 21:34:00,
2013-06-13 15:43:00,96.0,37.0,29.97,ESE,112,9.0,19.0,12,-99.99,,,-99.99,811.700012,,2013-06-13 21:43:00,
2013-06-13 15:52:00,96.0,37.0,29.96,ESE,107,10.0,23.0,12,-99.99,,,-99.99,783.799988,,2013-06-13 21:52:00,
2013-06-13 16:02:00,96.0,37.0,29.96,ESE,107,10.0,23.0,12,-99.99,,,-99.99,783.799988,,2013-06-13 22:02:00,
2013-06-13 16:11:00,97.0,37.0,29.95,SE,135,8.0,20.0,12,-99.99,,,-99.99,751.030029,,2013-06-13 22:11:00,
2013-06-13 16:22:00,97.0,37.0,29.95,SE,136,12.0,21.0,12,-99.99,,,-99.99,704.309998,,2013-06-13 22:22:00,
2013-06-13 16:32:00,97.0,37.0,29.95,SE,136,12.0,21.0,12,-99.99,,,-99.99,704.309998,,2013-06-13 22:32:00,
2013-06-13 16:42:00,96.0,38.0,29.94,East,87,9.0,20.0,13,-99.99,,,-99.99,679.200012,,2013-06-13 22:42:00,
2013-06-13 16:52:00,96.0,37.0,29.94,SE,136,10.0,21.0,13,-99.99,,,-99.99,627.599976,,2013-06-13 22:52:00,
2013-06-13 17:02:00,96.0,37.0,29.94,SE,136,10.0,21.0,13,-99.99,,,-99.99,627.599976,,2013-06-13 23:02:00,
2013-06-13 17:11:00,96.0,38.0,29.94,ESE,119,9.0,25.0,13,-99.99,,,-99.99,598.309998,,2013-06-13 23:11:00,
2013-06-13 17:22:00,96.0,39.0,29.94,East,98,12.0,21.0,13,-99.99,,,-99.99,550.890015,,2013-06-13 23:22:00,
2013-06-13 17:32:00,96.0,39.0,29.94,East,98,12.0,21.0,13,-99.99,,,-99.99,550.890015,,2013-06-13 23:32:00,
2013-06-13 17:43:00,96.0,38.0,29.94,ESE,104,14.0,22.0,13,-99.99,,,-99.99,501.380005,,2013-06-13 23:43:00,
2013-06-13 17:52:00,96.0,39.0,29.94,ESE,120,11.0,23.0,13,-99.99,,,-99.99,465.119995,,2013-06-13 23:52:00,
2013-06-13 18:01:00,96.0,39.0,29.94,ESE,120,11.0,23.0,13,-99.99,,,-99.99,465.119995,,2013-06-14 00:01:00,
2013-06-13 18:11:00,95.0,39.0,29.94,SE,138,12.0,19.0,14,-99.99,,,-99.99,423.279999,,2013-06-14 00:11:00,
2013-06-13 18:22:00,95.0,42.0,29.93,ESE,114,16.0,30.0,16,-99.99,,,-99.99,366.100006,,2013-06-14 00:22:00,
2013-06-13 18:34:00,95.0,42.0,29.93,ESE,114,16.0,30.0,16,-99.99,,,-99.99,366.100006,,2013-06-14 00:34:00,
2013-06-13 18:43:00,94.0,44.0,29.93,SE,128,14.0,24.0,17,-99.99,,,-99.99,322.170013,,2013-06-14 00:43:00,
2013-06-13 18:53:00,94.0,45.0,29.93,ESE,110,14.0,23.0,18,-99.99,,,-99.99,274.750000,,2013-06-14 00:53:00,
2013-06-13 19:01:00,94.0,45.0,29.93,ESE,110,14.0,23.0,18,-99.99,,,-99.99,274.750000,,2013-06-14 01:01:00,
2013-06-13 19:11:00,93.0,46.0,29.93,SE,134,15.0,25.0,19,-99.99,,,-99.99,230.820007,,2013-06-14 01:11:00,
2013-06-13 19:22:00,93.0,47.0,29.93,ESE,117,14.0,23.0,21,-99.99,,,-99.99,187.580002,,2013-06-14 01:22:00,
2013-06-13 19:32:00,93.0,47.0,29.93,ESE,117,14.0,23.0,21,-99.99,,,-99.99,187.580002,,2013-06-14 01:32:00,
2013-06-13 19:43:00,92.0,48.0,29.93,ESE,119,15.0,22.0,22,-99.99,,,-99.99,140.860001,,2013-06-14 01:43:00,
2013-06-13 19:52:00,91.0,49.0,29.94,ESE,108,15.0,24.0,23,-99.99,,,-99.99,102.510002,,2013-06-14 01:52:00,
2013-06-13 20:02:00,91.0,49.0,29.94,ESE,108,15.0,24.0,23,-99.99,,,-99.99,102.510002,,2013-06-14 02:02:00,
2013-06-13 20:11:00,89.0,50.0,29.94,ESE,113,16.0,26.0,25,-99.99,,,-99.99,20.920000,,2013-06-14 02:11:00,
2013-06-13 20:22:00,89.0,50.0,29.94,ESE,116,13.0,20.0,26,-99.99,,,-99.99,9.070000,,2013-06-14 02:22:00,
2013-06-13 20:32:00,89.0,50.0,29.94,ESE,116,13.0,20.0,26,-99.99,,,-99.99,9.070000,,2013-06-14 02:32:00,
2013-06-13 20:43:00,88.0,49.0,29.95,SE,129,13.0,20.0,26,-99.99,,,-99.99,4.880000,,2013-06-14 02:43:00,
2013-06-13 20:53:00,88.0,50.0,29.96,SE,131,14.0,22.0,27,-99.99,,,-99.99,0.700000,,2013-06-14 02:53:00,
2013-06-13 21:02:00,88.0,50.0,29.96,SE,131,14.0,22.0,27,-99.99,,,-99.99,0.700000,,2013-06-14 03:02:00,
2013-06-13 21:11:00,86.0,52.0,29.97,SE,132,17.0,25.0,31,-99.99,,,-99.99,0.000000,,2013-06-14 03:11:00,
2013-06-13 21:22:00,85.0,54.0,29.98,SSE,159,17.0,26.0,34,-99.99,,,-99.99,0.000000,,2013-06-14 03:22:00,
2013-06-13 21:34:00,85.0,54.0,29.98,SSE,159,17.0,26.0,34,-99.99,,,-99.99,0.000000,,2013-06-14 03:34:00,
2013-06-13 21:43:00,85.0,54.0,29.98,SSE,165,15.0,22.0,35,-99.99,,,-99.99,0.000000,,2013-06-14 03:43:00,
2013-06-13 21:53:00,84.0,54.0,29.99,SE,142,16.0,25.0,35,-99.99,,,-99.99,0.000000,,2013-06-14 03:53:00,
2013-06-13 22:01:00,84.0,54.0,29.99,SE,142,16.0,25.0,35,-99.99,,,-99.99,0.000000,,2013-06-14 04:01:00,
2013-06-13 22:12:00,83.0,54.0,30.00,SE,141,16.0,25.0,36,-99.99,,,-99.99,0.000000,,2013-06-14 04:12:00,
2013-06-13 22:22:00,83.0,53.0,30.01,SSE,148,14.0,23.0,35,-99.99,,,-99.99,0.000000,,2013-06-14 04:22:00,
2013-06-13 22:33:00,83.0,53.0,30.01,SSE,148,14.0,23.0,35,-99.99,,,-99.99,0.000000,,2013-06-14 04:33:00,
2013-06-13 22:43:00,82.0,52.0,30.01,SSE,147,16.0,25.0,35,-99.99,,,-99.99,0.000000,,2013-06-14 04:43:00,
2013-06-13 22:53:00,81.0,53.0,30.02,SE,135,15.0,23.0,38,-99.99,,,-99.99,0.000000,,2013-06-14 04:53:00,
2013-06-13 23:02:00,81.0,53.0,30.02,SE,135,15.0,23.0,38,-99.99,,,-99.99,0.000000,,2013-06-14 05:02:00,
2013-06-13 23:11:00,81.0,54.0,30.02,SE,135,14.0,21.0,39,-99.99,,,-99.99,0.000000,,2013-06-14 05:11:00,
2013-06-13 23:22:00,80.0,52.0,30.02,SE,137,17.0,25.0,37,-99.99,,,-99.99,0.000000,,2013-06-14 05:22:00,
2013-06-13 23:34:00,80.0,52.0,30.02,SE,137,17.0,25.0,37,-99.99,,,-99.99,0.000000,,2013-06-14 05:34:00,
2013-06-13 23:43:00,80.0,50.0,30.03,SE,136,14.0,23.0,34,-99.99,,,-99.99,0.000000,,2013-06-14 05:43:00,
2013-06-13 23:52:00,79.0,50.0,30.03,SE,129,11.0,17.0,36,-99.99,,,-99.99,0.000000,,2013-06-14 05:52:00,